Time,TemperatureF,DewpointF,PressureIn,WindDirection,WindDirectionDegrees,WindSpeedMPH,WindSpeedGustMPH,Humidity,HourlyPrecipIn,Conditions,Clouds,dailyrainin,SolarRadiationWatts/m^2,SoftwareType,DateUTC
2013-01-19 00:02:00,27.0,24.0,-100.00,South,171,2.0,4.0,88,0.00,,,0.00,0.000000,,2013-01-19 06:02:00,
2013-01-19 00:12:00,27.0,24.0,-100.00,South,171,2.0,4.0,88,0.00,,,0.00,0.000000,,2013-01-19 06:12:00,
2013-01-19 00:43:00,33.0,25.0,-100.00,SSW,204,2.0,5.0,72,0.00,,,0.00,0.000000,,2013-01-19 06:43:00,
2013-01-19 00:53:00,33.0,25.0,-100.00,SSW,204,2.0,5.0,72,0.00,,,0.00,0.000000,,2013-01-19 06:53:00,
2013-01-19 01:02:00,33.0,25.0,-100.00,SSW,204,2.0,5.0,72,0.00,,,0.00,0.000000,,2013-01-19 07:02:00,
2013-01-19 01:12:00,33.0,25.0,-100.00,SSW,204,2.0,5.0,72,0.00,,,0.00,0.000000,,2013-01-19 07:12:00,
2013-01-19 01:33:00,35.0,25.0,-100.00,SSW,201,3.0,7.0,67,0.00,,,0.00,0.000000,,2013-01-19 07:33:00,
2013-01-19 01:43:00,35.0,25.0,-100.00,SSW,201,3.0,7.0,67,0.00,,,0.00,0.000000,,2013-01-19 07:43:00,
2013-01-19 01:53:00,35.0,25.0,-100.00,SSW,201,3.0,7.0,67,0.00,,,0.00,0.000000,,2013-01-19 07:53:00,
2013-01-19 02:02:00,35.0,25.0,-100.00,SSW,201,3.0,7.0,67,0.00,,,0.00,0.000000,,2013-01-19 08:02:00,
2013-01-19 02:12:00,35.0,25.0,-100.00,SSW,201,3.0,7.0,67,0.00,,,0.00,0.000000,,2013-01-19 08:12:00,
2013-01-19 02:43:00,35.0,25.0,-100.00,South,187,3.0,8.0,66,0.00,,,0.00,0.000000,,2013-01-19 08:43:00,
2013-01-19 02:53:00,35.0,25.0,-100.00,South,187,3.0,8.0,66,0.00,,,0.00,0.000000,,2013-01-19 08:53:00,
2013-01-19 03:02:00,35.0,25.0,-100.00,South,187,3.0,8.0,66,0.00,,,0.00,0.000000,,2013-01-19 09:02:00,
2013-01-19 03:12:00,35.0,25.0,-100.00,South,187,3.0,8.0,66,0.00,,,0.00,0.000000,,2013-01-19 09:12:00,
2013-01-19 03:43:00,35.0,26.0,-100.00,South,170,3.0,8.0,68,0.00,,,0.00,0.000000,,2013-01-19 09:43:00,
2013-01-19 03:53:00,35.0,26.0,-100.00,South,170,3.0,8.0,68,0.00,,,0.00,0.000000,,2013-01-19 09:53:00,
2013-01-19 04:02:00,35.0,26.0,-100.00,South,170,3.0,8.0,68,0.00,,,0.00,0.000000,,2013-01-19 10:02:00,
2013-01-19 04:12:00,35.0,26.0,-100.00,South,170,3.0,8.0,68,0.00,,,0.00,0.000000,,2013-01-19 10:12:00,
2013-01-19 04:43:00,34.0,25.0,-100.00,South,182,3.0,8.0,70,0.00,,,0.00,0.000000,,2013-01-19 10:43:00,
2013-01-19 04:53:00,34.0,25.0,-100.00,South,182,3.0,8.0,70,0.00,,,0.00,0.000000,,2013-01-19 10:53:00,
2013-01-19 05:03:00,34.0,25.0,-100.00,South,182,3.0,8.0,70,0.00,,,0.00,0.000000,,2013-01-19 11:03:00,
2013-01-19 05:12:00,34.0,25.0,-100.00,South,182,3.0,8.0,70,0.00,,,0.00,0.000000,,2013-01-19 11:12:00,
2013-01-19 06:48:00,35.0,27.0,-100.00,South,188,3.0,11.0,71,0.00,,,0.00,0.000000,,2013-01-19 12:48:00,
2013-01-19 06:53:00,35.0,27.0,-100.00,South,188,3.0,11.0,71,0.00,,,0.00,0.000000,,2013-01-19 12:53:00,
2013-01-19 07:03:00,35.0,27.0,-100.00,South,188,3.0,11.0,71,0.00,,,0.00,0.000000,,2013-01-19 13:03:00,
2013-01-19 07:12:00,35.0,27.0,-100.00,South,188,3.0,11.0,71,0.00,,,0.00,0.000000,,2013-01-19 13:12:00,
2013-01-19 07:43:00,36.0,28.0,-100.00,SSW,201,3.0,8.0,71,0.00,,,0.00,2.000000,,2013-01-19 13:43:00,
2013-01-19 07:53:00,36.0,28.0,-100.00,SSW,201,3.0,8.0,71,0.00,,,0.00,2.000000,,2013-01-19 13:53:00,
2013-01-19 08:02:00,36.0,28.0,-100.00,SSW,201,3.0,8.0,71,0.00,,,0.00,2.000000,,2013-01-19 14:02:00,
2013-01-19 08:12:00,36.0,28.0,-100.00,SSW,201,3.0,8.0,71,0.00,,,0.00,2.000000,,2013-01-19 14:12:00,
2013-01-19 08:43:00,42.0,28.0,-100.00,SW,214,6.0,13.0,57,0.00,,,0.00,91.000000,,2013-01-19 14:43:00,
2013-01-19 08:53:00,42.0,28.0,-100.00,SW,214,6.0,13.0,57,0.00,,,0.00,91.000000,,2013-01-19 14:53:00,
2013-01-19 09:03:00,42.0,28.0,-100.00,SW,214,6.0,13.0,57,0.00,,,0.00,91.000000,,2013-01-19 15:03:00,
2013-01-19 09:12:00,42.0,28.0,-100.00,SW,214,6.0,13.0,57,0.00,,,0.00,91.000000,,2013-01-19 15:12:00,
2013-01-19 09:43:00,46.0,29.0,-100.00,SW,217,9.0,20.0,51,0.00,,,0.00,246.000000,,2013-01-19 15:43:00,
2013-01-19 09:53:00,46.0,29.0,-100.00,SW,217,9.0,20.0,51,0.00,,,0.00,246.000000,,2013-01-19 15:53:00,
2013-01-19 10:03:00,46.0,29.0,-100.00,SW,217,9.0,20.0,51,0.00,,,0.00,246.000000,,2013-01-19 16:03:00,
2013-01-19 10:13:00,46.0,29.0,-100.00,SW,217,9.0,20.0,51,0.00,,,0.00,246.000000,,2013-01-19 16:13:00,
2013-01-19 10:15:00,50.0,29.0,-100.00,SW,219,10.0,22.0,44,0.00,,,0.00,378.000000,,2013-01-19 16:15:00,
2013-01-19 10:33:00,50.0,29.0,-100.00,SW,219,10.0,22.0,44,0.00,,,0.00,378.000000,,2013-01-19 16:33:00,
2013-01-19 10:43:00,50.0,29.0,-100.00,SW,219,10.0,22.0,44,0.00,,,0.00,378.000000,,2013-01-19 16:43:00,
2013-01-19 10:54:00,50.0,29.0,-100.00,SW,219,10.0,22.0,44,0.00,,,0.00,378.000000,,2013-01-19 16:54:00,
2013-01-19 11:03:00,50.0,29.0,-100.00,SW,219,10.0,22.0,44,0.00,,,0.00,378.000000,,2013-01-19 17:03:00,
2013-01-19 11:38:00,54.0,28.0,-100.00,SW,219,9.0,22.0,37,0.00,,,0.00,469.000000,,2013-01-19 17:38:00,
2013-01-19 11:50:00,54.0,28.0,-100.00,SW,219,9.0,22.0,37,0.00,,,0.00,469.000000,,2013-01-19 17:50:00,
2013-01-19 11:55:00,54.0,28.0,-100.00,SW,219,9.0,22.0,37,0.00,,,0.00,469.000000,,2013-01-19 17:55:00,
2013-01-19 12:11:00,54.0,28.0,-100.00,SW,219,9.0,22.0,37,0.00,,,0.00,469.000000,,2013-01-19 18:11:00,
2013-01-19 12:15:00,57.0,-35.0,-100.00,SW,223,9.0,23.0,0,0.00,,,0.00,512.000000,,2013-01-19 18:15:00,
2013-01-19 12:48:00,57.0,-35.0,-100.00,SW,223,9.0,23.0,0,0.00,,,0.00,512.000000,,2013-01-19 18:48:00,
2013-01-19 13:09:00,57.0,-35.0,-100.00,SW,223,9.0,23.0,0,0.00,,,0.00,512.000000,,2013-01-19 19:09:00,
2013-01-19 13:15:00,59.0,27.0,-100.00,SW,226,8.0,20.0,29,0.00,,,0.00,497.000000,,2013-01-19 19:15:00,
2013-01-19 13:49:00,59.0,27.0,-100.00,SW,226,8.0,20.0,29,0.00,,,0.00,497.000000,,2013-01-19 19:49:00,
2013-01-19 13:57:00,59.0,27.0,-100.00,SW,226,8.0,20.0,29,0.00,,,0.00,497.000000,,2013-01-19 19:57:00,
2013-01-19 14:10:00,59.0,27.0,-100.00,SW,226,8.0,20.0,29,0.00,,,0.00,497.000000,,2013-01-19 20:10:00,
2013-01-19 14:50:00,59.0,28.0,-100.00,SW,227,8.0,21.0,30,0.00,,,0.00,430.000000,,2013-01-19 20:50:00,
2013-01-19 14:59:00,59.0,28.0,-100.00,SW,227,8.0,21.0,30,0.00,,,0.00,430.000000,,2013-01-19 20:59:00,
2013-01-19 15:06:00,59.0,28.0,-100.00,SW,227,8.0,21.0,30,0.00,,,0.00,430.000000,,2013-01-19 21:06:00,
2013-01-19 15:14:00,59.0,28.0,-100.00,SW,227,8.0,21.0,30,0.00,,,0.00,430.000000,,2013-01-19 21:14:00,
2013-01-19 15:15:00,59.0,28.0,-100.00,SW,226,9.0,17.0,30,0.00,,,0.00,317.000000,,2013-01-19 21:15:00,
2013-01-19 15:53:00,59.0,28.0,-100.00,SW,226,9.0,17.0,30,0.00,,,0.00,317.000000,,2013-01-19 21:53:00,
2013-01-19 16:00:00,59.0,28.0,-100.00,SW,226,9.0,17.0,30,0.00,,,0.00,317.000000,,2013-01-19 22:00:00,
2013-01-19 16:13:00,59.0,28.0,-100.00,SW,226,9.0,17.0,30,0.00,,,0.00,317.000000,,2013-01-19 22:13:00,
2013-01-19 16:49:00,58.0,-34.0,-100.00,SSW,213,7.0,20.0,0,0.00,,,0.00,177.000000,,2013-01-19 22:49:00,
2013-01-19 17:13:00,58.0,-34.0,-100.00,SSW,213,7.0,20.0,0,0.00,,,0.00,177.000000,,2013-01-19 23:13:00,
2013-01-19 17:15:00,52.0,27.0,-100.00,SSW,203,5.0,13.0,38,0.00,,,0.00,33.000000,,2013-01-19 23:15:00,
2013-01-19 17:51:00,52.0,27.0,-100.00,SSW,203,5.0,13.0,38,0.00,,,0.00,33.000000,,2013-01-19 23:51:00,
2013-01-19 18:07:00,52.0,27.0,-100.00,SSW,203,5.0,13.0,38,0.00,,,0.00,33.000000,,2013-01-20 00:07:00,
2013-01-19 18:15:00,49.0,27.0,-100.00,SSW,205,5.0,11.0,43,0.00,,,0.00,0.000000,,2013-01-20 00:15:00,
2013-01-19 18:38:00,49.0,27.0,-100.00,SSW,205,5.0,11.0,43,0.00,,,0.00,0.000000,,2013-01-20 00:38:00,
2013-01-19 18:48:00,49.0,27.0,-100.00,SSW,205,5.0,11.0,43,0.00,,,0.00,0.000000,,2013-01-20 00:48:00,
2013-01-19 19:04:00,49.0,27.0,-100.00,SSW,205,5.0,11.0,43,0.00,,,0.00,0.000000,,2013-01-20 01:04:00,
2013-01-19 19:39:00,49.0,29.0,-100.00,SSW,204,6.0,12.0,46,0.00,,,0.00,0.000000,,2013-01-20 01:39:00,
2013-01-19 20:04:00,49.0,29.0,-100.00,SSW,204,6.0,12.0,46,0.00,,,0.00,0.000000,,2013-01-20 02:04:00,
2013-01-19 20:14:00,49.0,29.0,-100.00,SSW,204,6.0,12.0,46,0.00,,,0.00,0.000000,,2013-01-20 02:14:00,
2013-01-19 20:38:00,48.0,30.0,-100.00,SW,221,5.0,14.0,49,0.00,,,0.00,0.000000,,2013-01-20 02:38:00,
2013-01-19 20:45:00,48.0,30.0,-100.00,SW,221,5.0,14.0,49,0.00,,,0.00,0.000000,,2013-01-20 02:45:00,
2013-01-19 20:59:00,48.0,30.0,-100.00,SW,221,5.0,14.0,49,0.00,,,0.00,0.000000,,2013-01-20 02:59:00,
2013-01-19 21:14:00,48.0,30.0,-100.00,SW,221,5.0,14.0,49,0.00,,,0.00,0.000000,,2013-01-20 03:14:00,
2013-01-19 21:15:00,48.0,30.0,-100.00,SW,227,7.0,12.0,49,0.00,,,0.00,0.000000,,2013-01-20 03:15:00,
2013-01-19 21:39:00,48.0,30.0,-100.00,SW,227,7.0,12.0,49,0.00,,,0.00,0.000000,,2013-01-20 03:39:00,
2013-01-19 21:58:00,48.0,30.0,-100.00,SW,227,7.0,12.0,49,0.00,,,0.00,0.000000,,2013-01-20 03:58:00,
2013-01-19 22:05:00,48.0,30.0,-100.00,SW,227,7.0,12.0,49,0.00,,,0.00,0.000000,,2013-01-20 04:05:00,
2013-01-19 22:45:00,48.0,29.0,-100.00,SW,230,9.0,19.0,48,0.00,,,0.00,0.000000,,2013-01-20 04:45:00,
2013-01-19 22:58:00,48.0,29.0,-100.00,SW,230,9.0,19.0,48,0.00,,,0.00,0.000000,,2013-01-20 04:58:00,
2013-01-19 23:04:00,48.0,29.0,-100.00,SW,230,9.0,19.0,48,0.00,,,0.00,0.000000,,2013-01-20 05:04:00,
2013-01-19 23:12:00,48.0,29.0,-100.00,SW,230,9.0,19.0,48,0.00,,,0.00,0.000000,,2013-01-20 05:12:00,
2013-01-19 23:33:00,47.0,28.0,-100.00,SW,229,9.0,17.0,47,0.00,,,0.00,0.000000,,2013-01-20 05:33:00,
2013-01-19 23:43:00,47.0,28.0,-100.00,SW,229,9.0,17.0,47,0.00,,,0.00,0.000000,,2013-01-20 05:43:00,
2013-01-19 23:53:00,47.0,28.0,-100.00,SW,229,9.0,17.0,47,0.00,,,0.00,0.000000,,2013-01-20 05:53:00,